Terminal Aerodrome Forecast
Issued by NWS Twin Cities, MN

Home | Current Version | Previous Version | Graphics & Text | Print | Product List | Glossary On
Versions: 1 2 3 4 5 6 7 8 9 10 11 12 13 14 15 16
979
FTUS43 KMPX 270535
TAFEAU
TAF
KEAU 270535Z 2706/2806 22004KT P6SM SCT050
     FM271000 28004KT P6SM SCT250
     FM271500 27007KT P6SM SCT120 BKN250
     FM272000 26008KT P6SM BKN100
     FM280200 22003KT P6SM BKN120=

USA.gov is the U.S. government's official web portal to all federal, state and local government web resources and services.